sensor_id;sensor_type;location;lat;lon;timestamp;pressure;altitude;pressure_sealevel;temperature;humidity
8697;BME280;4385;48.848;8.924;2023-05-09T00:01:08;97660.75;;;21.02;100.00
8697;BME280;4385;48.848;8.924;2023-05-09T00:03:34;97654.78;;;21.01;100.00
8697;BME280;4385;48.848;8.924;2023-05-09T00:05:59;97659.91;;;21.01;100.00
8697;BME280;4385;48.848;8.924;2023-05-09T00:08:26;97650.56;;;21.00;100.00
8697;BME280;4385;48.848;8.924;2023-05-09T00:10:51;97658.25;;;21.00;100.00
8697;BME280;4385;48.848;8.924;2023-05-09T00:13:17;97653.13;;;21.00;100.00
8697;BME280;4385;48.848;8.924;2023-05-09T00:15:43;97659.91;;;21.01;100.00
8697;BME280;4385;48.848;8.924;2023-05-09T00:18:08;97653.13;;;21.00;100.00
8697;BME280;4385;48.848;8.924;2023-05-09T00:20:33;97650.56;;;21.00;100.00
8697;BME280;4385;48.848;8.924;2023-05-09T00:22:59;97639.50;;;20.98;100.00
8697;BME280;4385;48.848;8.924;2023-05-09T00:25:24;97639.50;;;20.98;100.00
8697;BME280;4385;48.848;8.924;2023-05-09T00:27:49;97636.94;;;20.98;100.00
8697;BME280;4385;48.848;8.924;2023-05-09T00:30:15;97631.00;;;20.96;100.00
8697;BME280;4385;48.848;8.924;2023-05-09T00:32:40;97642.16;;;20.95;100.00
8697;BME280;4385;48.848;8.924;2023-05-09T00:35:06;97631.97;;;20.93;100.00
8697;BME280;4385;48.848;8.924;2023-05-09T00:37:32;97631.97;;;20.93;100.00
8697;BME280;4385;48.848;8.924;2023-05-09T00:39:57;97630.28;;;20.92;100.00
8697;BME280;4385;48.848;8.924;2023-05-09T00:42:23;97629.44;;;20.92;100.00
8697;BME280;4385;48.848;8.924;2023-05-09T00:44:48;97624.31;;;20.92;100.00
8697;BME280;4385;48.848;8.924;2023-05-09T00:47:14;97627.78;;;20.91;100.00
8697;BME280;4385;48.848;8.924;2023-05-09T00:49:39;97622.59;;;20.92;100.00
8697;BME280;4385;48.848;8.924;2023-05-09T00:52:04;97622.56;;;20.94;100.00
8697;BME280;4385;48.848;8.924;2023-05-09T00:54:30;97628.53;;;20.93;100.00
8697;BME280;4385;48.848;8.924;2023-05-09T00:56:55;97627.78;;;20.91;100.00
8697;BME280;4385;48.848;8.924;2023-05-09T00:59:23;97619.19;;;20.92;100.00
8697;BME280;4385;48.848;8.924;2023-05-09T01:01:49;97620.09;;;20.91;100.00
8697;BME280;4385;48.848;8.924;2023-05-09T01:04:15;97620.09;;;20.89;100.00
8697;BME280;4385;48.848;8.924;2023-05-09T01:09:42;97607.31;;;20.89;100.00
8697;BME280;4385;48.848;8.924;2023-05-09T01:18:26;97603.88;;;20.89;100.00
8697;BME280;4385;48.848;8.924;2023-05-09T01:21:04;97603.03;;;20.88;100.00
8697;BME280;4385;48.848;8.924;2023-05-09T01:31:40;97598.75;;;20.89;100.00
8697;BME280;4385;48.848;8.924;2023-05-09T01:34:08;97593.66;;;20.89;100.00
8697;BME280;4385;48.848;8.924;2023-05-09T01:36:36;97579.16;;;20.88;100.00
8697;BME280;4385;48.848;8.924;2023-05-09T01:39:05;97581.72;;;20.88;100.00
8697;BME280;4385;48.848;8.924;2023-05-09T01:41:33;97571.53;;;20.86;100.00
8697;BME280;4385;48.848;8.924;2023-05-09T01:44:01;97574.09;;;20.86;100.00
8697;BME280;4385;48.848;8.924;2023-05-09T01:46:28;97568.94;;;20.88;100.00
8697;BME280;4385;48.848;8.924;2023-05-09T01:48:53;97575.84;;;20.84;100.00
8697;BME280;4385;48.848;8.924;2023-05-09T01:51:20;97576.75;;;20.83;100.00
8697;BME280;4385;48.848;8.924;2023-05-09T01:53:47;97576.78;;;20.81;100.00
8697;BME280;4385;48.848;8.924;2023-05-09T01:56:14;97574.25;;;20.81;100.00
8697;BME280;4385;48.848;8.924;2023-05-09T01:58:40;97578.50;;;20.81;100.00
8697;BME280;4385;48.848;8.924;2023-05-09T02:01:07;97581.91;;;20.81;100.00
8697;BME280;4385;48.848;8.924;2023-05-09T02:03:33;97579.41;;;20.80;100.00
8697;BME280;4385;48.848;8.924;2023-05-09T02:06:02;97586.25;;;20.79;100.00
8697;BME280;4385;48.848;8.924;2023-05-09T02:08:28;97574.34;;;20.78;100.00
8697;BME280;4385;48.848;8.924;2023-05-09T02:10:53;97576.03;;;20.78;100.00
8697;BME280;4385;48.848;8.924;2023-05-09T02:13:19;97564.94;;;20.77;100.00
8697;BME280;4385;48.848;8.924;2023-05-09T02:15:45;97569.25;;;20.77;100.00
8697;BME280;4385;48.848;8.924;2023-05-09T02:18:10;97563.28;;;20.76;100.00
8697;BME280;4385;48.848;8.924;2023-05-09T02:20:36;97559.06;;;20.75;100.00
8697;BME280;4385;48.848;8.924;2023-05-09T02:23:02;97561.63;;;20.75;100.00
8697;BME280;4385;48.848;8.924;2023-05-09T02:25:27;97556.50;;;20.75;100.00
8697;BME280;4385;48.848;8.924;2023-05-09T02:27:54;97556.50;;;20.75;100.00
8697;BME280;4385;48.848;8.924;2023-05-09T02:30:22;97555.66;;;20.75;100.00
8697;BME280;4385;48.848;8.924;2023-05-09T02:32:52;97560.72;;;20.76;100.00
8697;BME280;4385;48.848;8.924;2023-05-09T02:35:20;97556.53;;;20.74;100.00
8697;BME280;4385;48.848;8.924;2023-05-09T02:37:47;97559.94;;;20.74;100.00
8697;BME280;4385;48.848;8.924;2023-05-09T02:40:13;97565.03;;;20.74;100.00
8697;BME280;4385;48.848;8.924;2023-05-09T02:42:38;97554.81;;;20.74;100.00
8697;BME280;4385;48.848;8.924;2023-05-09T02:45:04;97555.66;;;20.75;100.00
8697;BME280;4385;48.848;8.924;2023-05-09T02:47:29;97550.56;;;20.73;100.00
8697;BME280;4385;48.848;8.924;2023-05-09T02:49:55;97554.81;;;20.74;100.00
8697;BME280;4385;48.848;8.924;2023-05-09T02:52:20;97554.03;;;20.72;100.00
8697;BME280;4385;48.848;8.924;2023-05-09T02:54:46;97554.03;;;20.72;100.00
8697;BME280;4385;48.848;8.924;2023-05-09T02:57:12;97546.34;;;20.72;100.00
8697;BME280;4385;48.848;8.924;2023-05-09T02:59:37;97546.34;;;20.72;100.00
8697;BME280;4385;48.848;8.924;2023-05-09T03:02:05;97550.63;;;20.72;100.00
8697;BME280;4385;48.848;8.924;2023-05-09T03:04:31;97544.66;;;20.71;100.00
8697;BME280;4385;48.848;8.924;2023-05-09T03:06:56;97545.50;;;20.72;100.00
8697;BME280;4385;48.848;8.924;2023-05-09T03:09:21;97543.00;;;20.70;100.00
8697;BME280;4385;48.848;8.924;2023-05-09T03:11:46;97538.72;;;20.71;100.00
8697;BME280;4385;48.848;8.924;2023-05-09T03:14:12;97539.53;;;20.71;100.00
8697;BME280;4385;48.848;8.924;2023-05-09T03:16:38;97543.00;;;20.70;100.00
8697;BME280;4385;48.848;8.924;2023-05-09T03:19:04;97541.31;;;20.69;100.00
8697;BME280;4385;48.848;8.924;2023-05-09T03:21:29;97542.09;;;20.71;100.00
8697;BME280;4385;48.848;8.924;2023-05-09T03:23:56;97532.75;;;20.70;100.00
8697;BME280;4385;48.848;8.924;2023-05-09T03:26:21;97527.63;;;20.70;100.00
8697;BME280;4385;48.848;8.924;2023-05-09T03:28:46;97536.19;;;20.69;100.00
8697;BME280;4385;48.848;8.924;2023-05-09T03:31:13;97539.63;;;20.68;100.00
8697;BME280;4385;48.848;8.924;2023-05-09T03:33:38;97526.00;;;20.67;100.00
8697;BME280;4385;48.848;8.924;2023-05-09T03:36:03;97523.50;;;20.66;100.00
8697;BME280;4385;48.848;8.924;2023-05-09T03:38:29;97526.88;;;20.66;100.00
8697;BME280;4385;48.848;8.924;2023-05-09T03:40:54;97519.25;;;20.65;100.00
8697;BME280;4385;48.848;8.924;2023-05-09T03:43:19;97520.97;;;20.64;100.00
8697;BME280;4385;48.848;8.924;2023-05-09T03:45:45;97526.06;;;20.66;100.00
8697;BME280;4385;48.848;8.924;2023-05-09T03:48:10;97517.56;;;20.64;100.00
8697;BME280;4385;48.848;8.924;2023-05-09T03:50:36;97523.53;;;20.64;100.00
8697;BME280;4385;48.848;8.924;2023-05-09T03:53:02;97525.22;;;20.65;100.00
8697;BME280;4385;48.848;8.924;2023-05-09T03:55:27;97523.50;;;20.66;100.00
8697;BME280;4385;48.848;8.924;2023-05-09T03:57:53;97525.22;;;20.65;100.00
8697;BME280;4385;48.848;8.924;2023-05-09T04:00:19;97526.91;;;20.65;100.00
8697;BME280;4385;48.848;8.924;2023-05-09T04:02:45;97518.41;;;20.64;100.00
8697;BME280;4385;48.848;8.924;2023-05-09T04:05:10;97520.13;;;20.64;100.00
8697;BME280;4385;48.848;8.924;2023-05-09T04:07:36;97515.00;;;20.64;100.00
8697;BME280;4385;48.848;8.924;2023-05-09T04:10:05;97516.78;;;20.62;100.00
8697;BME280;4385;48.848;8.924;2023-05-09T04:12:33;97514.22;;;20.62;100.00
8697;BME280;4385;48.848;8.924;2023-05-09T04:14:58;97513.41;;;20.61;100.00
8697;BME280;4385;48.848;8.924;2023-05-09T04:17:24;97516.00;;;20.60;100.00
8697;BME280;4385;48.848;8.924;2023-05-09T04:19:49;97514.31;;;20.59;100.00
8697;BME280;4385;48.848;8.924;2023-05-09T04:22:14;97511.75;;;20.59;100.00
8697;BME280;4385;48.848;8.924;2023-05-09T04:24:40;97507.53;;;20.58;100.00
8697;BME280;4385;48.848;8.924;2023-05-09T04:27:06;97510.03;;;20.59;100.00
8697;BME280;4385;48.848;8.924;2023-05-09T04:29:32;97505.75;;;20.60;100.00
8697;BME280;4385;48.848;8.924;2023-05-09T04:31:58;97501.41;;;20.62;100.00
8697;BME280;4385;48.848;8.924;2023-05-09T04:34:23;97510.75;;;20.64;100.00
8697;BME280;4385;48.848;8.924;2023-05-09T04:36:50;97514.06;;;20.66;100.00
8697;BME280;4385;48.848;8.924;2023-05-09T04:39:16;97506.38;;;20.66;100.00
8697;BME280;4385;48.848;8.924;2023-05-09T04:41:41;97514.06;;;20.66;100.00
8697;BME280;4385;48.848;8.924;2023-05-09T04:44:08;97512.34;;;20.67;100.00
8697;BME280;4385;48.848;8.924;2023-05-09T04:46:34;97513.22;;;20.67;100.00
8697;BME280;4385;48.848;8.924;2023-05-09T04:48:59;97514.13;;;20.65;100.00
8697;BME280;4385;48.848;8.924;2023-05-09T04:51:27;97514.97;;;20.65;100.00
8697;BME280;4385;48.848;8.924;2023-05-09T04:53:53;97515.81;;;20.66;100.00
8697;BME280;4385;48.848;8.924;2023-05-09T04:56:18;97519.19;;;20.66;100.00
8697;BME280;4385;48.848;8.924;2023-05-09T04:58:43;97519.25;;;20.65;100.00
8697;BME280;4385;48.848;8.924;2023-05-09T05:01:09;97518.41;;;20.64;100.00
8697;BME280;4385;48.848;8.924;2023-05-09T05:03:34;97515.84;;;20.64;100.00
8697;BME280;4385;48.848;8.924;2023-05-09T05:05:59;97514.97;;;20.65;100.00
8697;BME280;4385;48.848;8.924;2023-05-09T05:08:25;97510.78;;;20.63;100.00
8697;BME280;4385;48.848;8.924;2023-05-09T05:10:50;97515.91;;;20.63;100.00
8697;BME280;4385;48.848;8.924;2023-05-09T05:13:15;97512.50;;;20.62;100.00
8697;BME280;4385;48.848;8.924;2023-05-09T05:15:41;97509.94;;;20.62;100.00
8697;BME280;4385;48.848;8.924;2023-05-09T05:18:06;97506.47;;;20.63;100.00
8697;BME280;4385;48.848;8.924;2023-05-09T05:20:32;97505.72;;;20.61;100.00
8697;BME280;4385;48.848;8.924;2023-05-09T05:22:57;97503.97;;;20.62;100.00
8697;BME280;4385;48.848;8.924;2023-05-09T05:25:24;97499.69;;;20.62;100.00
8697;BME280;4385;48.848;8.924;2023-05-09T05:27:49;97506.53;;;20.62;100.00
8697;BME280;4385;48.848;8.924;2023-05-09T05:30:14;97509.09;;;20.62;100.00
8697;BME280;4385;48.848;8.924;2023-05-09T05:32:40;97504.03;;;20.60;100.00
8697;BME280;4385;48.848;8.924;2023-05-09T05:35:06;97505.72;;;20.61;100.00
8697;BME280;4385;48.848;8.924;2023-05-09T05:37:31;97507.44;;;20.61;100.00
8697;BME280;4385;48.848;8.924;2023-05-09T05:39:57;97504.81;;;20.62;100.00
8697;BME280;4385;48.848;8.924;2023-05-09T05:42:22;97492.91;;;20.61;100.00
8697;BME280;4385;48.848;8.924;2023-05-09T05:44:47;97486.00;;;20.63;100.00
8697;BME280;4385;48.848;8.924;2023-05-09T05:47:12;97495.34;;;20.66;100.00
8697;BME280;4385;48.848;8.924;2023-05-09T05:49:38;97499.56;;;20.67;100.00
8697;BME280;4385;48.848;8.924;2023-05-09T05:52:03;97489.28;;;20.68;100.00
8697;BME280;4385;48.848;8.924;2023-05-09T05:54:31;97502.03;;;20.70;100.00
8697;BME280;4385;48.848;8.924;2023-05-09T05:56:56;97492.56;;;20.72;100.00
8697;BME280;4385;48.848;8.924;2023-05-09T05:59:22;97489.97;;;20.74;100.00
8697;BME280;4385;48.848;8.924;2023-05-09T06:01:47;97495.03;;;20.75;100.00
8697;BME280;4385;48.848;8.924;2023-05-09T06:04:12;97485.63;;;20.76;100.00
8697;BME280;4385;48.848;8.924;2023-05-09T06:06:38;97489.91;;;20.75;100.00
8697;BME280;4385;48.848;8.924;2023-05-09T06:09:03;97488.22;;;20.74;100.00
8697;BME280;4385;48.848;8.924;2023-05-09T06:11:28;97486.56;;;20.73;100.00
8697;BME280;4385;48.848;8.924;2023-05-09T06:13:56;97479.78;;;20.72;100.00
8697;BME280;4385;48.848;8.924;2023-05-09T06:16:21;97483.19;;;20.71;100.00
8697;BME280;4385;48.848;8.924;2023-05-09T06:18:50;97491.78;;;20.70;100.00
8697;BME280;4385;48.848;8.924;2023-05-09T06:21:15;97476.41;;;20.70;100.00
8697;BME280;4385;48.848;8.924;2023-05-09T06:23:40;97483.28;;;20.68;100.00
8697;BME280;4385;48.848;8.924;2023-05-09T06:26:06;97478.19;;;20.68;100.00
8697;BME280;4385;48.848;8.924;2023-05-09T06:28:31;97474.84;;;20.66;100.00
8697;BME280;4385;48.848;8.924;2023-05-09T06:30:56;97474.84;;;20.66;100.00
8697;BME280;4385;48.848;8.924;2023-05-09T06:33:21;97471.50;;;20.64;100.00
8697;BME280;4385;48.848;8.924;2023-05-09T06:35:47;97471.53;;;20.62;100.00
8697;BME280;4385;48.848;8.924;2023-05-09T06:38:12;97466.47;;;20.61;100.00
8697;BME280;4385;48.848;8.924;2023-05-09T06:40:37;97474.09;;;20.62;100.00
8697;BME280;4385;48.848;8.924;2023-05-09T06:43:02;97463.91;;;20.61;100.00
8697;BME280;4385;48.848;8.924;2023-05-09T06:45:28;97459.63;;;20.61;100.00
8697;BME280;4385;48.848;8.924;2023-05-09T06:47:54;97463.00;;;20.62;100.00
8697;BME280;4385;48.848;8.924;2023-05-09T06:50:20;97461.34;;;20.61;100.00
8697;BME280;4385;48.848;8.924;2023-05-09T06:52:45;97452.81;;;20.60;100.00
8697;BME280;4385;48.848;8.924;2023-05-09T06:55:10;97451.09;;;20.61;100.00
8697;BME280;4385;48.848;8.924;2023-05-09T06:57:37;97446.88;;;20.60;100.00
8697;BME280;4385;48.848;8.924;2023-05-09T07:00:03;97445.97;;;20.61;100.00
8697;BME280;4385;48.848;8.924;2023-05-09T07:02:29;97448.53;;;20.61;100.00
8697;BME280;4385;48.848;8.924;2023-05-09T07:04:54;97446.88;;;20.60;100.00
8697;BME280;4385;48.848;8.924;2023-05-09T07:07:20;97446.94;;;20.58;100.00
8697;BME280;4385;48.848;8.924;2023-05-09T07:09:46;97440.97;;;20.58;100.00
8697;BME280;4385;48.848;8.924;2023-05-09T07:12:11;97437.59;;;20.55;100.00
8697;BME280;4385;48.848;8.924;2023-05-09T07:14:36;97436.03;;;20.51;100.00
8697;BME280;4385;48.848;8.924;2023-05-09T07:17:02;97435.19;;;20.51;100.00
8697;BME280;4385;48.848;8.924;2023-05-09T07:19:27;97433.53;;;20.50;100.00
8697;BME280;4385;48.848;8.924;2023-05-09T07:21:52;97431.88;;;20.49;100.00
8697;BME280;4385;48.848;8.924;2023-05-09T07:24:18;97422.44;;;20.49;100.00
8697;BME280;4385;48.848;8.924;2023-05-09T07:26:43;97423.28;;;20.50;100.00
8697;BME280;4385;48.848;8.924;2023-05-09T07:29:08;97415.56;;;20.51;100.00
8697;BME280;4385;48.848;8.924;2023-05-09T07:31:33;97415.56;;;20.51;100.00
8697;BME280;4385;48.848;8.924;2023-05-09T07:33:59;97410.44;;;20.51;100.00
8697;BME280;4385;48.848;8.924;2023-05-09T07:36:24;97402.72;;;20.53;100.00
8697;BME280;4385;48.848;8.924;2023-05-09T07:38:49;97397.53;;;20.54;100.00
8697;BME280;4385;48.848;8.924;2023-05-09T07:41:17;97389.88;;;20.54;100.00
8697;BME280;4385;48.848;8.924;2023-05-09T07:43:42;97394.88;;;20.58;100.00
8697;BME280;4385;48.848;8.924;2023-05-09T07:46:07;97391.44;;;20.59;100.00
8697;BME280;4385;48.848;8.924;2023-05-09T07:48:33;97387.16;;;20.59;100.00
8697;BME280;4385;48.848;8.924;2023-05-09T07:50:58;97382.03;;;20.59;100.00
8697;BME280;4385;48.848;8.924;2023-05-09T07:53:23;97382.97;;;20.56;100.00
8697;BME280;4385;48.848;8.924;2023-05-09T07:55:48;97382.13;;;20.56;100.00
8697;BME280;4385;48.848;8.924;2023-05-09T07:58:17;97371.91;;;20.56;100.00
8697;BME280;4385;48.848;8.924;2023-05-09T08:00:42;97372.75;;;20.56;100.00
8697;BME280;4385;48.848;8.924;2023-05-09T08:03:07;97362.50;;;20.56;100.00
8697;BME280;4385;48.848;8.924;2023-05-09T08:05:33;97369.34;;;20.56;100.00
8697;BME280;4385;48.848;8.924;2023-05-09T08:07:58;97360.81;;;20.55;100.00
8697;BME280;4385;48.848;8.924;2023-05-09T08:10:23;97360.81;;;20.55;100.00
8697;BME280;4385;48.848;8.924;2023-05-09T08:12:50;97365.13;;;20.55;100.00
8697;BME280;4385;48.848;8.924;2023-05-09T08:15:16;97353.19;;;20.54;100.00
8697;BME280;4385;48.848;8.924;2023-05-09T08:17:41;97354.03;;;20.54;100.00
8697;BME280;4385;48.848;8.924;2023-05-09T08:20:06;97348.91;;;20.54;100.00
8697;BME280;4385;48.848;8.924;2023-05-09T08:22:33;97341.28;;;20.53;100.00
8697;BME280;4385;48.848;8.924;2023-05-09T08:24:58;97348.06;;;20.54;100.00
8697;BME280;4385;48.848;8.924;2023-05-09T08:27:23;97342.13;;;20.53;100.00
8697;BME280;4385;48.848;8.924;2023-05-09T08:29:48;97336.16;;;20.53;100.00
8697;BME280;4385;48.848;8.924;2023-05-09T08:32:14;97325.06;;;20.52;100.00
8697;BME280;4385;48.848;8.924;2023-05-09T08:34:39;97330.19;;;20.52;100.00
8697;BME280;4385;48.848;8.924;2023-05-09T08:37:04;97325.06;;;20.52;100.00
8697;BME280;4385;48.848;8.924;2023-05-09T08:39:30;97325.91;;;20.53;100.00
8697;BME280;4385;48.848;8.924;2023-05-09T08:41:59;97331.03;;;20.53;100.00
8697;BME280;4385;48.848;8.924;2023-05-09T08:44:25;97322.47;;;20.54;100.00
8697;BME280;4385;48.848;8.924;2023-05-09T08:46:54;97319.84;;;20.55;100.00
8697;BME280;4385;48.848;8.924;2023-05-09T08:49:20;97321.53;;;20.56;100.00
8697;BME280;4385;48.848;8.924;2023-05-09T08:51:49;97324.88;;;20.59;100.00
8697;BME280;4385;48.848;8.924;2023-05-09T08:54:15;97318.88;;;20.60;100.00
8697;BME280;4385;48.848;8.924;2023-05-09T08:56:41;97310.19;;;20.64;100.00
8697;BME280;4385;48.848;8.924;2023-05-09T08:59:07;97314.47;;;20.63;100.00
8697;BME280;4385;48.848;8.924;2023-05-09T09:01:33;97321.84;;;20.73;100.00
8697;BME280;4385;48.848;8.924;2023-05-09T09:04:04;97311.66;;;20.71;100.00
8697;BME280;4385;48.848;8.924;2023-05-09T09:06:32;97302.41;;;20.67;100.00
8697;BME280;4385;48.848;8.924;2023-05-09T09:08:59;97307.53;;;20.67;100.00
8697;BME280;4385;48.848;8.924;2023-05-09T09:11:25;97298.25;;;20.64;100.00
8697;BME280;4385;48.848;8.924;2023-05-09T09:13:53;97293.84;;;20.68;100.00
8697;BME280;4385;48.848;8.924;2023-05-09T09:16:21;97294.63;;;20.70;100.00
8697;BME280;4385;48.848;8.924;2023-05-09T09:18:51;97291.16;;;20.71;100.00
8697;BME280;4385;48.848;8.924;2023-05-09T09:21:18;97286.94;;;20.70;100.00
8697;BME280;4385;48.848;8.924;2023-05-09T09:23:45;97275.03;;;20.69;100.00
8697;BME280;4385;48.848;8.924;2023-05-09T09:26:12;97271.69;;;20.67;100.00
8697;BME280;4385;48.848;8.924;2023-05-09T09:28:37;97275.16;;;20.66;100.00
8697;BME280;4385;48.848;8.924;2023-05-09T09:31:18;97269.13;;;20.67;100.00
8697;BME280;4385;48.848;8.924;2023-05-09T09:33:51;97255.53;;;20.65;100.00
8697;BME280;4385;48.848;8.924;2023-05-09T09:36:29;97251.22;;;20.67;100.00
8697;BME280;4385;48.848;8.924;2023-05-09T09:39:05;97248.72;;;20.65;100.00
8697;BME280;4385;48.848;8.924;2023-05-09T09:41:38;97246.03;;;20.68;100.00
8697;BME280;4385;48.848;8.924;2023-05-09T09:44:17;97244.28;;;20.71;100.00
8697;BME280;4385;48.848;8.924;2023-05-09T09:49:15;97239.91;;;20.73;100.00
8697;BME280;4385;48.848;8.924;2023-05-09T09:51:41;97239.09;;;20.72;100.00
8697;BME280;4385;48.848;8.924;2023-05-09T09:54:07;97233.97;;;20.72;100.00
8697;BME280;4385;48.848;8.924;2023-05-09T09:56:51;97228.84;;;20.72;100.00
8697;BME280;4385;48.848;8.924;2023-05-09T09:59:22;97221.19;;;20.72;100.00
8697;BME280;4385;48.848;8.924;2023-05-09T10:01:56;97219.44;;;20.73;100.00
8697;BME280;4385;48.848;8.924;2023-05-09T10:04:30;97216.91;;;20.71;100.00
8697;BME280;4385;48.848;8.924;2023-05-09T10:06:58;97217.81;;;20.70;100.00
8697;BME280;4385;48.848;8.924;2023-05-09T10:09:27;97213.59;;;20.69;100.00
8697;BME280;4385;48.848;8.924;2023-05-09T10:12:02;97205.13;;;20.67;100.00
8697;BME280;4385;48.848;8.924;2023-05-09T10:14:30;97211.09;;;20.67;100.00
8697;BME280;4385;48.848;8.924;2023-05-09T10:16:56;97202.50;;;20.68;100.00
8697;BME280;4385;48.848;8.924;2023-05-09T10:19:24;97201.66;;;20.68;100.00
8697;BME280;4385;48.848;8.924;2023-05-09T10:21:56;97197.44;;;20.67;100.00
8697;BME280;4385;48.848;8.924;2023-05-09T10:27:26;97184.53;;;20.70;100.00
8697;BME280;4385;48.848;8.924;2023-05-09T10:30:08;97184.53;;;20.70;100.00
8697;BME280;4385;48.848;8.924;2023-05-09T10:33:06;97174.31;;;20.70;100.00
8697;BME280;4385;48.848;8.924;2023-05-09T10:35:36;97171.75;;;20.70;100.00
8697;BME280;4385;48.848;8.924;2023-05-09T10:38:11;97166.63;;;20.70;100.00
8697;BME280;4385;48.848;8.924;2023-05-09T10:40:37;97168.28;;;20.71;100.00
8697;BME280;4385;48.848;8.924;2023-05-09T10:43:03;97170.03;;;20.71;100.00
8697;BME280;4385;48.848;8.924;2023-05-09T10:45:30;97163.16;;;20.71;100.00
8697;BME280;4385;48.848;8.924;2023-05-09T10:47:56;97151.25;;;20.70;100.00
8697;BME280;4385;48.848;8.924;2023-05-09T10:50:22;97155.47;;;20.71;100.00
8697;BME280;4385;48.848;8.924;2023-05-09T10:58:26;97151.16;;;20.73;100.00
8697;BME280;4385;48.848;8.924;2023-05-09T11:00:56;97139.25;;;20.72;100.00
8697;BME280;4385;48.848;8.924;2023-05-09T11:03:26;97124.63;;;20.74;100.00
8697;BME280;4385;48.848;8.924;2023-05-09T11:05:53;97130.59;;;20.75;100.00
8697;BME280;4385;48.848;8.924;2023-05-09T11:08:23;97115.31;;;20.73;100.00
8697;BME280;4385;48.848;8.924;2023-05-09T11:10:49;97102.50;;;20.73;100.00
8697;BME280;4385;48.848;8.924;2023-05-09T11:13:20;97099.94;;;20.73;100.00
8697;BME280;4385;48.848;8.924;2023-05-09T11:15:50;97093.09;;;20.74;100.00
8697;BME280;4385;48.848;8.924;2023-05-09T11:18:15;97094.75;;;20.75;100.00
8697;BME280;4385;48.848;8.924;2023-05-09T11:20:43;97095.59;;;20.75;100.00
8697;BME280;4385;48.848;8.924;2023-05-09T11:23:08;97088.69;;;20.77;100.00
8697;BME280;4385;48.848;8.924;2023-05-09T11:25:37;97079.34;;;20.76;100.00
8697;BME280;4385;48.848;8.924;2023-05-09T11:28:03;97084.41;;;20.78;100.00
8697;BME280;4385;48.848;8.924;2023-05-09T11:30:40;97078.38;;;20.79;100.00
8697;BME280;4385;48.848;8.924;2023-05-09T11:33:23;97074.09;;;20.79;100.00
8697;BME280;4385;48.848;8.924;2023-05-09T11:36:20;97072.38;;;20.80;100.00
8697;BME280;4385;48.848;8.924;2023-05-09T11:39:05;97068.13;;;20.79;100.00
8697;BME280;4385;48.848;8.924;2023-05-09T11:41:38;97061.31;;;20.79;100.00
8697;BME280;4385;48.848;8.924;2023-05-09T11:44:11;97064.66;;;20.81;100.00
8697;BME280;4385;48.848;8.924;2023-05-09T11:46:37;97048.38;;;20.83;100.00
8697;BME280;4385;48.848;8.924;2023-05-09T11:49:05;97044.91;;;20.84;100.00
8697;BME280;4385;48.848;8.924;2023-05-09T11:51:31;97043.13;;;20.86;100.00
8697;BME280;4385;48.848;8.924;2023-05-09T11:53:56;97035.44;;;20.86;100.00
8697;BME280;4385;48.848;8.924;2023-05-09T11:56:21;97032.91;;;20.86;100.00
8697;BME280;4385;48.848;8.924;2023-05-09T11:58:49;97031.22;;;20.85;100.00
8697;BME280;4385;48.848;8.924;2023-05-09T12:01:15;97027.84;;;20.84;100.00
8697;BME280;4385;48.848;8.924;2023-05-09T12:03:45;97027.00;;;20.84;100.00
8697;BME280;4385;48.848;8.924;2023-05-09T12:06:14;97026.06;;;20.86;100.00
8697;BME280;4385;48.848;8.924;2023-05-09T12:08:40;97019.19;;;20.87;100.00
8697;BME280;4385;48.848;8.924;2023-05-09T12:11:07;97021.75;;;20.87;100.00
8697;BME280;4385;48.848;8.924;2023-05-09T12:13:32;97015.81;;;20.86;100.00
8697;BME280;4385;48.848;8.924;2023-05-09T12:16:00;97010.69;;;20.86;100.00
8697;BME280;4385;48.848;8.924;2023-05-09T12:18:25;97010.63;;;20.88;100.00
8697;BME280;4385;48.848;8.924;2023-05-09T12:20:51;96999.59;;;20.86;100.00
8697;BME280;4385;48.848;8.924;2023-05-09T12:23:17;96999.47;;;20.89;100.00
8697;BME280;4385;48.848;8.924;2023-05-09T12:25:53;96997.81;;;20.88;100.00
8697;BME280;4385;48.848;8.924;2023-05-09T12:28:21;96981.63;;;20.87;100.00
8697;BME280;4385;48.848;8.924;2023-05-09T12:30:47;96982.47;;;20.88;100.00
8697;BME280;4385;48.848;8.924;2023-05-09T12:33:13;96977.34;;;20.88;100.00
8697;BME280;4385;48.848;8.924;2023-05-09T12:35:44;96967.09;;;20.88;100.00
8697;BME280;4385;48.848;8.924;2023-05-09T12:38:13;96960.22;;;20.88;100.00
8697;BME280;4385;48.848;8.924;2023-05-09T12:40:38;96963.56;;;20.90;100.00
8697;BME280;4385;48.848;8.924;2023-05-09T12:43:04;96960.16;;;20.90;100.00
8697;BME280;4385;48.848;8.924;2023-05-09T12:45:31;96956.75;;;20.91;100.00
8697;BME280;4385;48.848;8.924;2023-05-09T12:47:57;96953.28;;;20.92;100.00
8697;BME280;4385;48.848;8.924;2023-05-09T12:50:30;96949.75;;;20.95;100.00
8697;BME280;4385;48.848;8.924;2023-05-09T12:52:56;96950.59;;;20.95;100.00
8697;BME280;4385;48.848;8.924;2023-05-09T12:55:21;96947.19;;;20.95;100.00
8697;BME280;4385;48.848;8.924;2023-05-09T12:57:58;96952.38;;;20.93;100.00
8697;BME280;4385;48.848;8.924;2023-05-09T13:00:24;96951.50;;;20.94;100.00
8697;BME280;4385;48.848;8.924;2023-05-09T13:02:50;96942.13;;;20.93;100.00
8697;BME280;4385;48.848;8.924;2023-05-09T13:05:18;96944.69;;;20.93;100.00
8697;BME280;4385;48.848;8.924;2023-05-09T13:07:49;96943.88;;;20.92;100.00
8697;BME280;4385;48.848;8.924;2023-05-09T13:10:22;96941.34;;;20.92;100.00
8697;BME280;4385;48.848;8.924;2023-05-09T13:12:49;96934.47;;;20.93;100.00
8697;BME280;4385;48.848;8.924;2023-05-09T13:15:16;96926.03;;;20.91;100.00
8697;BME280;4385;48.848;8.924;2023-05-09T13:17:45;96929.44;;;20.90;100.00
8697;BME280;4385;48.848;8.924;2023-05-09T13:20:10;96919.19;;;20.90;100.00
8697;BME280;4385;48.848;8.924;2023-05-09T13:22:36;96909.78;;;20.90;100.00
8697;BME280;4385;48.848;8.924;2023-05-09T13:25:01;96912.31;;;20.92;100.00
8697;BME280;4385;48.848;8.924;2023-05-09T13:27:27;96908.91;;;20.91;100.00
8697;BME280;4385;48.848;8.924;2023-05-09T13:29:52;96905.41;;;20.94;100.00
8697;BME280;4385;48.848;8.924;2023-05-09T13:32:18;96902.91;;;20.92;100.00
8697;BME280;4385;48.848;8.924;2023-05-09T13:34:43;96907.97;;;20.94;100.00
8697;BME280;4385;48.848;8.924;2023-05-09T13:37:08;96908.59;;;20.99;100.00